Nashua, Minnesota
Current Conditions -  °F | °C
As of 10:14 PM on Tuesday 25 Nov 2014 (Local Time) from KFFM Reporting Station
Overcast Overcast  
Wind Chill: 10°   Ceiling: 3100
Heat Index: 21°   Visibility: 10mi
Dew Point: 12°   Wind: 10mph
Humidity: 68%   Direction: 80°E
Pressure: 29.98"   Gusts: NA
Location:  46.04°N, 96.31°W
Report Text: KFFM 260414Z AUTO 08009KT 10SM BKN031 OVC037 M06/M11 A2998 RMK AO2
Loading
Personal Weather Stations






























Interactive Weather Map New forecast layout! Learn more

10-Day Weather Forecast

Advertisements
Track Severe Weather on mobile